sensor_id;sensor_type;location;lat;lon;timestamp;P1;durP1;ratioP1;P2;durP2;ratioP2
25988;SDS011;13778;48.236;9.894;2023-03-23T00:01:10;11.23;;;5.40;;
25988;SDS011;13778;48.236;9.894;2023-03-23T00:04:02;6.53;;;5.40;;
25988;SDS011;13778;48.236;9.894;2023-03-23T00:06:52;11.65;;;6.03;;
25988;SDS011;13778;48.236;9.894;2023-03-23T00:09:43;10.32;;;5.65;;
25988;SDS011;13778;48.236;9.894;2023-03-23T00:12:34;8.20;;;5.10;;
25988;SDS011;13778;48.236;9.894;2023-03-23T00:15:25;8.65;;;5.47;;
25988;SDS011;13778;48.236;9.894;2023-03-23T00:21:11;9.75;;;5.15;;
25988;SDS011;13778;48.236;9.894;2023-03-23T00:24:03;8.32;;;5.68;;
25988;SDS011;13778;48.236;9.894;2023-03-23T00:26:55;9.05;;;5.55;;
25988;SDS011;13778;48.236;9.894;2023-03-23T00:29:48;6.88;;;4.75;;
25988;SDS011;13778;48.236;9.894;2023-03-23T00:32:42;8.80;;;5.57;;
25988;SDS011;13778;48.236;9.894;2023-03-23T00:35:33;9.05;;;5.40;;
25988;SDS011;13778;48.236;9.894;2023-03-23T00:38:25;9.75;;;5.28;;
25988;SDS011;13778;48.236;9.894;2023-03-23T00:41:16;9.73;;;5.43;;
25988;SDS011;13778;48.236;9.894;2023-03-23T00:44:06;13.02;;;6.05;;
25988;SDS011;13778;48.236;9.894;2023-03-23T00:46:57;6.45;;;5.22;;
25988;SDS011;13778;48.236;9.894;2023-03-23T00:49:49;13.95;;;5.97;;
25988;SDS011;13778;48.236;9.894;2023-03-23T00:52:41;8.38;;;5.75;;
25988;SDS011;13778;48.236;9.894;2023-03-23T00:55:31;11.50;;;6.00;;
25988;SDS011;13778;48.236;9.894;2023-03-23T00:58:22;6.82;;;5.47;;
25988;SDS011;13778;48.236;9.894;2023-03-23T01:01:13;8.07;;;5.95;;
25988;SDS011;13778;48.236;9.894;2023-03-23T01:04:03;9.50;;;5.85;;
25988;SDS011;13778;48.236;9.894;2023-03-23T01:06:55;8.52;;;6.05;;
25988;SDS011;13778;48.236;9.894;2023-03-23T01:09:45;7.00;;;5.18;;
25988;SDS011;13778;48.236;9.894;2023-03-23T01:12:37;9.40;;;5.60;;
25988;SDS011;13778;48.236;9.894;2023-03-23T01:15:28;8.70;;;5.63;;
25988;SDS011;13778;48.236;9.894;2023-03-23T01:18:18;8.57;;;6.00;;
25988;SDS011;13778;48.236;9.894;2023-03-23T01:21:09;11.93;;;7.28;;
25988;SDS011;13778;48.236;9.894;2023-03-23T01:24:01;8.07;;;5.80;;
25988;SDS011;13778;48.236;9.894;2023-03-23T01:26:52;7.40;;;6.00;;
25988;SDS011;13778;48.236;9.894;2023-03-23T01:29:42;12.70;;;6.25;;
25988;SDS011;13778;48.236;9.894;2023-03-23T01:32:33;8.57;;;6.72;;
25988;SDS011;13778;48.236;9.894;2023-03-23T01:35:23;10.82;;;6.32;;
25988;SDS011;13778;48.236;9.894;2023-03-23T01:38:14;11.85;;;6.20;;
25988;SDS011;13778;48.236;9.894;2023-03-23T01:41:06;9.15;;;6.15;;
25988;SDS011;13778;48.236;9.894;2023-03-23T01:43:57;9.98;;;6.00;;
25988;SDS011;13778;48.236;9.894;2023-03-23T01:46:47;9.15;;;5.22;;
25988;SDS011;13778;48.236;9.894;2023-03-23T01:49:39;11.60;;;6.07;;
25988;SDS011;13778;48.236;9.894;2023-03-23T01:52:31;8.35;;;5.63;;
25988;SDS011;13778;48.236;9.894;2023-03-23T01:55:22;8.93;;;6.47;;
25988;SDS011;13778;48.236;9.894;2023-03-23T01:58:15;9.00;;;5.93;;
25988;SDS011;13778;48.236;9.894;2023-03-23T02:01:07;14.82;;;5.82;;
25988;SDS011;13778;48.236;9.894;2023-03-23T02:04:00;10.18;;;6.32;;
25988;SDS011;13778;48.236;9.894;2023-03-23T02:06:51;9.85;;;6.38;;
25988;SDS011;13778;48.236;9.894;2023-03-23T02:09:41;9.60;;;6.57;;
25988;SDS011;13778;48.236;9.894;2023-03-23T02:12:32;12.52;;;6.32;;
25988;SDS011;13778;48.236;9.894;2023-03-23T02:15:25;11.52;;;6.30;;
25988;SDS011;13778;48.236;9.894;2023-03-23T02:18:20;8.13;;;6.38;;
25988;SDS011;13778;48.236;9.894;2023-03-23T02:24:33;10.65;;;6.13;;
25988;SDS011;13778;48.236;9.894;2023-03-23T02:27:31;14.18;;;6.82;;
25988;SDS011;13778;48.236;9.894;2023-03-23T02:30:38;10.15;;;6.25;;
25988;SDS011;13778;48.236;9.894;2023-03-23T02:33:40;9.77;;;6.80;;
25988;SDS011;13778;48.236;9.894;2023-03-23T02:36:35;11.15;;;6.80;;
25988;SDS011;13778;48.236;9.894;2023-03-23T02:39:29;12.18;;;6.13;;
25988;SDS011;13778;48.236;9.894;2023-03-23T02:42:21;10.63;;;5.60;;
25988;SDS011;13778;48.236;9.894;2023-03-23T02:45:13;10.85;;;6.13;;
25988;SDS011;13778;48.236;9.894;2023-03-23T02:48:04;7.10;;;5.45;;
25988;SDS011;13778;48.236;9.894;2023-03-23T02:50:56;11.13;;;5.80;;
25988;SDS011;13778;48.236;9.894;2023-03-23T02:53:47;12.52;;;6.25;;
25988;SDS011;13778;48.236;9.894;2023-03-23T02:56:40;9.18;;;6.50;;
25988;SDS011;13778;48.236;9.894;2023-03-23T02:59:30;10.73;;;6.03;;
25988;SDS011;13778;48.236;9.894;2023-03-23T03:02:21;9.52;;;6.78;;
25988;SDS011;13778;48.236;9.894;2023-03-23T03:05:15;8.65;;;6.40;;
25988;SDS011;13778;48.236;9.894;2023-03-23T03:08:11;8.18;;;6.28;;
25988;SDS011;13778;48.236;9.894;2023-03-23T03:11:04;11.07;;;7.10;;
25988;SDS011;13778;48.236;9.894;2023-03-23T03:13:57;9.85;;;5.82;;
25988;SDS011;13778;48.236;9.894;2023-03-23T03:16:49;10.05;;;6.28;;
25988;SDS011;13778;48.236;9.894;2023-03-23T03:19:43;9.02;;;6.70;;
25988;SDS011;13778;48.236;9.894;2023-03-23T03:22:36;8.05;;;6.45;;
25988;SDS011;13778;48.236;9.894;2023-03-23T03:25:29;10.57;;;6.80;;
25988;SDS011;13778;48.236;9.894;2023-03-23T03:28:20;9.25;;;7.03;;
25988;SDS011;13778;48.236;9.894;2023-03-23T03:31:11;9.80;;;6.50;;
25988;SDS011;13778;48.236;9.894;2023-03-23T03:34:02;10.85;;;7.15;;
25988;SDS011;13778;48.236;9.894;2023-03-23T03:36:53;9.88;;;6.85;;
25988;SDS011;13778;48.236;9.894;2023-03-23T03:39:44;9.48;;;6.65;;
25988;SDS011;13778;48.236;9.894;2023-03-23T03:42:36;11.18;;;7.10;;
25988;SDS011;13778;48.236;9.894;2023-03-23T03:45:26;9.68;;;6.80;;
25988;SDS011;13778;48.236;9.894;2023-03-23T03:48:17;9.13;;;7.05;;
25988;SDS011;13778;48.236;9.894;2023-03-23T03:51:07;8.98;;;6.10;;
25988;SDS011;13778;48.236;9.894;2023-03-23T03:53:58;11.60;;;6.22;;
25988;SDS011;13778;48.236;9.894;2023-03-23T03:56:49;10.13;;;6.32;;
25988;SDS011;13778;48.236;9.894;2023-03-23T03:59:42;9.20;;;6.15;;
25988;SDS011;13778;48.236;9.894;2023-03-23T04:05:22;8.52;;;6.45;;
25988;SDS011;13778;48.236;9.894;2023-03-23T04:08:13;8.65;;;5.82;;
25988;SDS011;13778;48.236;9.894;2023-03-23T04:11:03;9.95;;;6.38;;
25988;SDS011;13778;48.236;9.894;2023-03-23T04:13:54;9.00;;;5.37;;
25988;SDS011;13778;48.236;9.894;2023-03-23T04:16:46;6.45;;;4.35;;
25988;SDS011;13778;48.236;9.894;2023-03-23T04:19:37;6.45;;;5.05;;
25988;SDS011;13778;48.236;9.894;2023-03-23T04:22:27;9.18;;;6.00;;
25988;SDS011;13778;48.236;9.894;2023-03-23T04:25:20;8.55;;;5.53;;
25988;SDS011;13778;48.236;9.894;2023-03-23T04:28:10;9.65;;;4.25;;
25988;SDS011;13778;48.236;9.894;2023-03-23T04:31:01;5.53;;;4.55;;
25988;SDS011;13778;48.236;9.894;2023-03-23T04:33:53;5.85;;;3.97;;
25988;SDS011;13778;48.236;9.894;2023-03-23T04:36:43;3.90;;;3.58;;
25988;SDS011;13778;48.236;9.894;2023-03-23T04:39:35;4.65;;;3.65;;
25988;SDS011;13778;48.236;9.894;2023-03-23T04:42:29;6.80;;;3.95;;
25988;SDS011;13778;48.236;9.894;2023-03-23T04:45:20;7.57;;;3.97;;
25988;SDS011;13778;48.236;9.894;2023-03-23T04:48:11;6.30;;;4.03;;
25988;SDS011;13778;48.236;9.894;2023-03-23T04:51:03;6.47;;;3.88;;
25988;SDS011;13778;48.236;9.894;2023-03-23T04:53:54;6.35;;;4.10;;
25988;SDS011;13778;48.236;9.894;2023-03-23T04:56:45;6.05;;;4.05;;
25988;SDS011;13778;48.236;9.894;2023-03-23T04:59:35;3.80;;;3.40;;
25988;SDS011;13778;48.236;9.894;2023-03-23T05:02:26;5.45;;;3.60;;
25988;SDS011;13778;48.236;9.894;2023-03-23T05:05:19;7.47;;;4.40;;
25988;SDS011;13778;48.236;9.894;2023-03-23T05:08:11;5.35;;;3.58;;
25988;SDS011;13778;48.236;9.894;2023-03-23T05:11:02;4.43;;;3.50;;
25988;SDS011;13778;48.236;9.894;2023-03-23T05:13:53;6.72;;;3.95;;
25988;SDS011;13778;48.236;9.894;2023-03-23T05:16:44;7.70;;;4.35;;
25988;SDS011;13778;48.236;9.894;2023-03-23T05:19:37;5.50;;;3.45;;
25988;SDS011;13778;48.236;9.894;2023-03-23T05:22:30;5.50;;;3.88;;
25988;SDS011;13778;48.236;9.894;2023-03-23T05:25:22;8.90;;;3.97;;
25988;SDS011;13778;48.236;9.894;2023-03-23T05:28:12;6.10;;;3.67;;
25988;SDS011;13778;48.236;9.894;2023-03-23T05:31:03;5.50;;;3.88;;
25988;SDS011;13778;48.236;9.894;2023-03-23T05:33:55;9.60;;;5.28;;
25988;SDS011;13778;48.236;9.894;2023-03-23T05:36:45;9.90;;;5.43;;
25988;SDS011;13778;48.236;9.894;2023-03-23T05:39:37;7.70;;;5.38;;
25988;SDS011;13778;48.236;9.894;2023-03-23T05:42:29;11.90;;;5.05;;
25988;SDS011;13778;48.236;9.894;2023-03-23T05:48:09;9.00;;;5.13;;
25988;SDS011;13778;48.236;9.894;2023-03-23T05:51:00;11.38;;;5.93;;
25988;SDS011;13778;48.236;9.894;2023-03-23T05:53:50;7.55;;;5.00;;
25988;SDS011;13778;48.236;9.894;2023-03-23T05:56:41;11.40;;;5.57;;
25988;SDS011;13778;48.236;9.894;2023-03-23T05:59:33;5.70;;;4.32;;
25988;SDS011;13778;48.236;9.894;2023-03-23T06:05:14;11.05;;;4.90;;
25988;SDS011;13778;48.236;9.894;2023-03-23T06:08:05;6.32;;;5.50;;
25988;SDS011;13778;48.236;9.894;2023-03-23T06:10:56;10.75;;;5.03;;
25988;SDS011;13778;48.236;9.894;2023-03-23T06:13:47;6.40;;;4.97;;
25988;SDS011;13778;48.236;9.894;2023-03-23T06:16:39;10.63;;;5.15;;
25988;SDS011;13778;48.236;9.894;2023-03-23T06:19:29;13.00;;;6.03;;
25988;SDS011;13778;48.236;9.894;2023-03-23T06:22:19;8.60;;;5.28;;
25988;SDS011;13778;48.236;9.894;2023-03-23T06:25:10;9.52;;;5.30;;
25988;SDS011;13778;48.236;9.894;2023-03-23T06:28:01;7.85;;;4.57;;
25988;SDS011;13778;48.236;9.894;2023-03-23T06:30:52;7.82;;;4.45;;
25988;SDS011;13778;48.236;9.894;2023-03-23T06:33:44;12.82;;;5.25;;
25988;SDS011;13778;48.236;9.894;2023-03-23T06:36:34;7.45;;;4.45;;
25988;SDS011;13778;48.236;9.894;2023-03-23T06:39:25;6.07;;;3.50;;
25988;SDS011;13778;48.236;9.894;2023-03-23T06:42:15;5.63;;;4.00;;
25988;SDS011;13778;48.236;9.894;2023-03-23T06:45:07;10.43;;;4.72;;
25988;SDS011;13778;48.236;9.894;2023-03-23T06:47:58;5.63;;;4.17;;
25988;SDS011;13778;48.236;9.894;2023-03-23T06:50:50;5.78;;;3.53;;
25988;SDS011;13778;48.236;9.894;2023-03-23T06:53:40;9.15;;;3.80;;
25988;SDS011;13778;48.236;9.894;2023-03-23T06:56:31;7.22;;;4.32;;
25988;SDS011;13778;48.236;9.894;2023-03-23T06:59:22;9.55;;;3.83;;
25988;SDS011;13778;48.236;9.894;2023-03-23T07:02:13;9.48;;;4.22;;
25988;SDS011;13778;48.236;9.894;2023-03-23T07:05:04;5.13;;;4.10;;
25988;SDS011;13778;48.236;9.894;2023-03-23T07:07:56;4.57;;;3.50;;
25988;SDS011;13778;48.236;9.894;2023-03-23T07:13:39;4.15;;;3.28;;
25988;SDS011;13778;48.236;9.894;2023-03-23T07:16:29;4.65;;;3.25;;
25988;SDS011;13778;48.236;9.894;2023-03-23T07:19:20;4.68;;;2.90;;
25988;SDS011;13778;48.236;9.894;2023-03-23T07:22:10;5.40;;;3.65;;
25988;SDS011;13778;48.236;9.894;2023-03-23T07:25:02;4.03;;;3.38;;
25988;SDS011;13778;48.236;9.894;2023-03-23T07:27:53;3.92;;;2.75;;
25988;SDS011;13778;48.236;9.894;2023-03-23T07:30:44;4.60;;;3.35;;
25988;SDS011;13778;48.236;9.894;2023-03-23T07:33:34;6.07;;;3.88;;
25988;SDS011;13778;48.236;9.894;2023-03-23T07:36:25;4.93;;;3.10;;
25988;SDS011;13778;48.236;9.894;2023-03-23T07:39:16;6.75;;;3.72;;
25988;SDS011;13778;48.236;9.894;2023-03-23T07:42:08;5.20;;;3.15;;
25988;SDS011;13778;48.236;9.894;2023-03-23T07:44:58;8.50;;;3.50;;
25988;SDS011;13778;48.236;9.894;2023-03-23T07:47:49;7.78;;;3.60;;
25988;SDS011;13778;48.236;9.894;2023-03-23T07:50:40;5.60;;;3.53;;
25988;SDS011;13778;48.236;9.894;2023-03-23T07:53:30;13.85;;;3.85;;
25988;SDS011;13778;48.236;9.894;2023-03-23T07:56:21;5.00;;;3.65;;
25988;SDS011;13778;48.236;9.894;2023-03-23T07:59:13;6.53;;;3.40;;
25988;SDS011;13778;48.236;9.894;2023-03-23T08:02:03;4.03;;;3.08;;
25988;SDS011;13778;48.236;9.894;2023-03-23T08:04:54;5.57;;;3.58;;
25988;SDS011;13778;48.236;9.894;2023-03-23T08:07:45;8.27;;;3.67;;
25988;SDS011;13778;48.236;9.894;2023-03-23T08:10:36;5.25;;;3.83;;
25988;SDS011;13778;48.236;9.894;2023-03-23T08:13:26;4.97;;;3.33;;
25988;SDS011;13778;48.236;9.894;2023-03-23T08:16:18;6.43;;;3.70;;
25988;SDS011;13778;48.236;9.894;2023-03-23T08:19:10;8.63;;;4.00;;
25988;SDS011;13778;48.236;9.894;2023-03-23T08:22:01;11.98;;;4.28;;
25988;SDS011;13778;48.236;9.894;2023-03-23T08:24:51;4.50;;;4.05;;
25988;SDS011;13778;48.236;9.894;2023-03-23T08:27:42;8.65;;;4.57;;
25988;SDS011;13778;48.236;9.894;2023-03-23T08:30:33;16.90;;;4.00;;
25988;SDS011;13778;48.236;9.894;2023-03-23T08:33:24;4.03;;;3.47;;
25988;SDS011;13778;48.236;9.894;2023-03-23T08:36:17;8.48;;;4.47;;
25988;SDS011;13778;48.236;9.894;2023-03-23T08:39:07;7.07;;;3.47;;
25988;SDS011;13778;48.236;9.894;2023-03-23T08:41:58;5.05;;;3.67;;
25988;SDS011;13778;48.236;9.894;2023-03-23T08:44:48;5.57;;;3.53;;
25988;SDS011;13778;48.236;9.894;2023-03-23T08:47:39;6.65;;;3.63;;
25988;SDS011;13778;48.236;9.894;2023-03-23T08:50:31;5.68;;;3.30;;
25988;SDS011;13778;48.236;9.894;2023-03-23T08:56:12;5.35;;;3.47;;
25988;SDS011;13778;48.236;9.894;2023-03-23T08:59:02;5.90;;;3.22;;
25988;SDS011;13778;48.236;9.894;2023-03-23T09:01:53;6.22;;;3.60;;
25988;SDS011;13778;48.236;9.894;2023-03-23T09:04:43;3.42;;;3.05;;
25988;SDS011;13778;48.236;9.894;2023-03-23T09:07:35;7.57;;;3.40;;
25988;SDS011;13778;48.236;9.894;2023-03-23T09:10:26;4.30;;;3.28;;
25988;SDS011;13778;48.236;9.894;2023-03-23T09:13:17;3.47;;;3.03;;
25988;SDS011;13778;48.236;9.894;2023-03-23T09:16:08;5.22;;;3.35;;
25988;SDS011;13778;48.236;9.894;2023-03-23T09:18:58;6.13;;;3.50;;
25988;SDS011;13778;48.236;9.894;2023-03-23T09:21:49;8.37;;;3.33;;
25988;SDS011;13778;48.236;9.894;2023-03-23T09:24:41;10.40;;;3.72;;
25988;SDS011;13778;48.236;9.894;2023-03-23T09:27:32;13.02;;;3.60;;
25988;SDS011;13778;48.236;9.894;2023-03-23T09:30:23;6.28;;;3.78;;
25988;SDS011;13778;48.236;9.894;2023-03-23T09:33:15;6.38;;;3.60;;
25988;SDS011;13778;48.236;9.894;2023-03-23T09:36:06;6.32;;;3.17;;
25988;SDS011;13778;48.236;9.894;2023-03-23T09:39:00;6.50;;;3.00;;
25988;SDS011;13778;48.236;9.894;2023-03-23T09:42:02;11.90;;;3.45;;
25988;SDS011;13778;48.236;9.894;2023-03-23T09:45:00;3.47;;;3.10;;
25988;SDS011;13778;48.236;9.894;2023-03-23T09:47:58;7.72;;;3.40;;
25988;SDS011;13778;48.236;9.894;2023-03-23T09:50:51;7.72;;;3.25;;
25988;SDS011;13778;48.236;9.894;2023-03-23T09:53:44;6.93;;;3.45;;
25988;SDS011;13778;48.236;9.894;2023-03-23T09:56:37;3.30;;;3.00;;
25988;SDS011;13778;48.236;9.894;2023-03-23T09:59:31;7.15;;;3.40;;
25988;SDS011;13778;48.236;9.894;2023-03-23T10:02:24;4.75;;;3.33;;
25988;SDS011;13778;48.236;9.894;2023-03-23T10:05:24;7.45;;;3.42;;
25988;SDS011;13778;48.236;9.894;2023-03-23T10:08:16;7.10;;;2.88;;
25988;SDS011;13778;48.236;9.894;2023-03-23T10:14:02;3.28;;;2.78;;
25988;SDS011;13778;48.236;9.894;2023-03-23T10:17:00;4.80;;;3.17;;
25988;SDS011;13778;48.236;9.894;2023-03-23T10:19:53;5.53;;;2.80;;
25988;SDS011;13778;48.236;9.894;2023-03-23T10:22:46;6.32;;;2.50;;
25988;SDS011;13778;48.236;9.894;2023-03-23T10:25:40;5.45;;;2.85;;
25988;SDS011;13778;48.236;9.894;2023-03-23T10:28:35;5.47;;;3.20;;
25988;SDS011;13778;48.236;9.894;2023-03-23T10:31:27;6.75;;;2.50;;
25988;SDS011;13778;48.236;9.894;2023-03-23T10:34:22;3.40;;;2.42;;
25988;SDS011;13778;48.236;9.894;2023-03-23T10:37:17;3.40;;;2.50;;
25988;SDS011;13778;48.236;9.894;2023-03-23T10:40:12;3.60;;;2.47;;
25988;SDS011;13778;48.236;9.894;2023-03-23T10:43:04;3.85;;;2.22;;
25988;SDS011;13778;48.236;9.894;2023-03-23T10:45:57;6.22;;;2.65;;
25988;SDS011;13778;48.236;9.894;2023-03-23T10:48:49;4.75;;;2.53;;
25988;SDS011;13778;48.236;9.894;2023-03-23T10:54:39;4.35;;;2.30;;
25988;SDS011;13778;48.236;9.894;2023-03-23T10:57:36;3.67;;;2.70;;
25988;SDS011;13778;48.236;9.894;2023-03-23T11:00:27;6.22;;;2.55;;
25988;SDS011;13778;48.236;9.894;2023-03-23T11:03:23;3.63;;;2.20;;
25988;SDS011;13778;48.236;9.894;2023-03-23T11:06:19;5.57;;;2.90;;
25988;SDS011;13778;48.236;9.894;2023-03-23T11:09:10;4.68;;;2.55;;
25988;SDS011;13778;48.236;9.894;2023-03-23T11:12:03;4.85;;;2.63;;
25988;SDS011;13778;48.236;9.894;2023-03-23T11:15:02;3.20;;;2.42;;
25988;SDS011;13778;48.236;9.894;2023-03-23T11:17:57;3.03;;;2.20;;
25988;SDS011;13778;48.236;9.894;2023-03-23T11:20:49;2.88;;;2.30;;
25988;SDS011;13778;48.236;9.894;2023-03-23T11:23:41;3.47;;;2.15;;
25988;SDS011;13778;48.236;9.894;2023-03-23T11:29:24;4.32;;;2.60;;
25988;SDS011;13778;48.236;9.894;2023-03-23T11:32:15;5.95;;;2.50;;
25988;SDS011;13778;48.236;9.894;2023-03-23T11:35:06;9.38;;;2.80;;
25988;SDS011;13778;48.236;9.894;2023-03-23T11:38:05;6.05;;;2.40;;
25988;SDS011;13778;48.236;9.894;2023-03-23T11:40:56;6.18;;;2.55;;
25988;SDS011;13778;48.236;9.894;2023-03-23T11:43:50;3.00;;;2.10;;
25988;SDS011;13778;48.236;9.894;2023-03-23T11:46:44;3.75;;;2.30;;
25988;SDS011;13778;48.236;9.894;2023-03-23T11:49:38;7.88;;;2.97;;
25988;SDS011;13778;48.236;9.894;2023-03-23T11:52:32;5.10;;;2.42;;
25988;SDS011;13778;48.236;9.894;2023-03-23T11:55:25;5.22;;;2.42;;
25988;SDS011;13778;48.236;9.894;2023-03-23T11:58:17;3.95;;;2.00;;
25988;SDS011;13778;48.236;9.894;2023-03-23T12:01:11;4.90;;;3.00;;
25988;SDS011;13778;48.236;9.894;2023-03-23T12:04:18;4.57;;;2.60;;
25988;SDS011;13778;48.236;9.894;2023-03-23T12:07:13;4.22;;;2.53;;
25988;SDS011;13778;48.236;9.894;2023-03-23T12:10:08;5.78;;;2.83;;
25988;SDS011;13778;48.236;9.894;2023-03-23T12:13:08;5.57;;;3.67;;
25988;SDS011;13778;48.236;9.894;2023-03-23T12:16:04;3.90;;;2.78;;
25988;SDS011;13778;48.236;9.894;2023-03-23T12:19:01;2.78;;;2.45;;
25988;SDS011;13778;48.236;9.894;2023-03-23T12:21:57;4.30;;;2.65;;
25988;SDS011;13778;48.236;9.894;2023-03-23T12:24:55;4.30;;;2.45;;
25988;SDS011;13778;48.236;9.894;2023-03-23T12:27:52;4.80;;;2.38;;
25988;SDS011;13778;48.236;9.894;2023-03-23T12:30:45;2.58;;;2.30;;
25988;SDS011;13778;48.236;9.894;2023-03-23T12:33:41;3.85;;;2.22;;
25988;SDS011;13778;48.236;9.894;2023-03-23T12:36:39;7.35;;;2.92;;
25988;SDS011;13778;48.236;9.894;2023-03-23T12:39:46;8.80;;;3.05;;
25988;SDS011;13778;48.236;9.894;2023-03-23T12:42:40;6.35;;;2.70;;
25988;SDS011;13778;48.236;9.894;2023-03-23T12:48:46;6.05;;;3.10;;
25988;SDS011;13778;48.236;9.894;2023-03-23T12:51:39;3.00;;;2.30;;
25988;SDS011;13778;48.236;9.894;2023-03-23T12:54:33;6.93;;;2.60;;
25988;SDS011;13778;48.236;9.894;2023-03-23T12:57:28;3.55;;;2.55;;
25988;SDS011;13778;48.236;9.894;2023-03-23T13:00:22;6.43;;;3.25;;
25988;SDS011;13778;48.236;9.894;2023-03-23T13:03:14;3.72;;;2.78;;
25988;SDS011;13778;48.236;9.894;2023-03-23T13:06:09;3.50;;;2.70;;
25988;SDS011;13778;48.236;9.894;2023-03-23T13:09:03;5.97;;;2.75;;
25988;SDS011;13778;48.236;9.894;2023-03-23T13:11:56;4.35;;;2.47;;
25988;SDS011;13778;48.236;9.894;2023-03-23T13:14:50;5.38;;;2.60;;
25988;SDS011;13778;48.236;9.894;2023-03-23T13:17:45;4.90;;;2.50;;
25988;SDS011;13778;48.236;9.894;2023-03-23T13:23:44;3.80;;;2.47;;
25988;SDS011;13778;48.236;9.894;2023-03-23T13:26:37;4.93;;;2.30;;
25988;SDS011;13778;48.236;9.894;2023-03-23T13:29:28;6.72;;;2.47;;
25988;SDS011;13778;48.236;9.894;2023-03-23T13:32:20;2.53;;;2.28;;
25988;SDS011;13778;48.236;9.894;2023-03-23T13:38:00;3.42;;;2.40;;
25988;SDS011;13778;48.236;9.894;2023-03-23T13:40:51;3.35;;;2.30;;
25988;SDS011;13778;48.236;9.894;2023-03-23T13:43:42;9.85;;;2.40;;
25988;SDS011;13778;48.236;9.894;2023-03-23T13:46:33;5.35;;;2.83;;
25988;SDS011;13778;48.236;9.894;2023-03-23T13:49:25;5.97;;;2.50;;
25988;SDS011;13778;48.236;9.894;2023-03-23T13:52:17;7.85;;;2.53;;
25988;SDS011;13778;48.236;9.894;2023-03-23T13:55:19;4.40;;;2.22;;
25988;SDS011;13778;48.236;9.894;2023-03-23T13:58:11;3.83;;;2.65;;
25988;SDS011;13778;48.236;9.894;2023-03-23T14:01:09;4.70;;;2.75;;
25988;SDS011;13778;48.236;9.894;2023-03-23T14:04:03;7.25;;;2.85;;
25988;SDS011;13778;48.236;9.894;2023-03-23T14:06:56;5.43;;;2.55;;
25988;SDS011;13778;48.236;9.894;2023-03-23T14:09:47;4.63;;;2.50;;
25988;SDS011;13778;48.236;9.894;2023-03-23T14:12:38;3.28;;;2.75;;
25988;SDS011;13778;48.236;9.894;2023-03-23T14:15:29;3.28;;;2.70;;
25988;SDS011;13778;48.236;9.894;2023-03-23T14:18:20;5.10;;;2.28;;
25988;SDS011;13778;48.236;9.894;2023-03-23T14:21:13;7.43;;;2.70;;
25988;SDS011;13778;48.236;9.894;2023-03-23T14:24:08;3.45;;;2.47;;
25988;SDS011;13778;48.236;9.894;2023-03-23T14:27:07;3.80;;;2.70;;
25988;SDS011;13778;48.236;9.894;2023-03-23T14:29:58;5.88;;;2.45;;
25988;SDS011;13778;48.236;9.894;2023-03-23T14:32:49;3.22;;;2.50;;
25988;SDS011;13778;48.236;9.894;2023-03-23T14:35:41;4.85;;;3.20;;
25988;SDS011;13778;48.236;9.894;2023-03-23T14:38:32;4.65;;;2.95;;
25988;SDS011;13778;48.236;9.894;2023-03-23T14:41:24;5.13;;;2.92;;
25988;SDS011;13778;48.236;9.894;2023-03-23T14:44:18;6.70;;;3.05;;
25988;SDS011;13778;48.236;9.894;2023-03-23T14:47:13;4.13;;;3.15;;
25988;SDS011;13778;48.236;9.894;2023-03-23T14:50:18;3.10;;;2.63;;
25988;SDS011;13778;48.236;9.894;2023-03-23T14:53:12;3.55;;;2.90;;
25988;SDS011;13778;48.236;9.894;2023-03-23T14:56:06;7.13;;;2.80;;
25988;SDS011;13778;48.236;9.894;2023-03-23T14:59:02;4.70;;;2.60;;
25988;SDS011;13778;48.236;9.894;2023-03-23T15:01:53;4.75;;;2.60;;
25988;SDS011;13778;48.236;9.894;2023-03-23T15:04:44;4.55;;;2.20;;
25988;SDS011;13778;48.236;9.894;2023-03-23T15:07:36;5.18;;;2.60;;
25988;SDS011;13778;48.236;9.894;2023-03-23T15:10:27;3.85;;;3.20;;
25988;SDS011;13778;48.236;9.894;2023-03-23T15:13:17;4.20;;;3.40;;
25988;SDS011;13778;48.236;9.894;2023-03-23T15:16:12;5.00;;;3.08;;
25988;SDS011;13778;48.236;9.894;2023-03-23T15:19:04;2.92;;;2.60;;
25988;SDS011;13778;48.236;9.894;2023-03-23T15:21:55;3.00;;;2.53;;
25988;SDS011;13778;48.236;9.894;2023-03-23T15:24:46;5.97;;;3.40;;
25988;SDS011;13778;48.236;9.894;2023-03-23T15:27:39;4.05;;;2.92;;
25988;SDS011;13778;48.236;9.894;2023-03-23T15:30:31;6.18;;;2.65;;
25988;SDS011;13778;48.236;9.894;2023-03-23T15:33:23;7.03;;;3.35;;
25988;SDS011;13778;48.236;9.894;2023-03-23T15:36:17;4.18;;;3.30;;
25988;SDS011;13778;48.236;9.894;2023-03-23T15:39:08;4.88;;;2.40;;
25988;SDS011;13778;48.236;9.894;2023-03-23T15:41:59;6.00;;;2.85;;
25988;SDS011;13778;48.236;9.894;2023-03-23T15:44:58;5.75;;;2.35;;
25988;SDS011;13778;48.236;9.894;2023-03-23T15:47:48;6.85;;;2.80;;
25988;SDS011;13778;48.236;9.894;2023-03-23T15:50:40;4.25;;;2.80;;
25988;SDS011;13778;48.236;9.894;2023-03-23T15:56:21;5.30;;;3.38;;
25988;SDS011;13778;48.236;9.894;2023-03-23T15:59:12;7.90;;;3.08;;
25988;SDS011;13778;48.236;9.894;2023-03-23T16:02:02;4.72;;;2.83;;
25988;SDS011;13778;48.236;9.894;2023-03-23T16:04:53;4.60;;;3.08;;
25988;SDS011;13778;48.236;9.894;2023-03-23T16:07:45;6.57;;;3.03;;
25988;SDS011;13778;48.236;9.894;2023-03-23T16:13:25;5.60;;;3.20;;
25988;SDS011;13778;48.236;9.894;2023-03-23T16:16:17;5.95;;;3.70;;
25988;SDS011;13778;48.236;9.894;2023-03-23T16:21:58;4.88;;;3.60;;
25988;SDS011;13778;48.236;9.894;2023-03-23T16:24:50;5.90;;;3.50;;
25988;SDS011;13778;48.236;9.894;2023-03-23T16:27:41;5.88;;;3.47;;
25988;SDS011;13778;48.236;9.894;2023-03-23T16:30:32;3.92;;;3.25;;
25988;SDS011;13778;48.236;9.894;2023-03-23T16:33:23;3.90;;;3.10;;
25988;SDS011;13778;48.236;9.894;2023-03-23T16:36:13;3.72;;;2.90;;
25988;SDS011;13778;48.236;9.894;2023-03-23T16:39:04;5.25;;;3.35;;
25988;SDS011;13778;48.236;9.894;2023-03-23T16:41:56;3.65;;;2.80;;
25988;SDS011;13778;48.236;9.894;2023-03-23T16:44:46;8.43;;;3.28;;
25988;SDS011;13778;48.236;9.894;2023-03-23T16:47:38;4.40;;;2.78;;
25988;SDS011;13778;48.236;9.894;2023-03-23T16:50:29;6.38;;;3.55;;
25988;SDS011;13778;48.236;9.894;2023-03-23T16:53:20;4.63;;;3.55;;
25988;SDS011;13778;48.236;9.894;2023-03-23T16:56:10;3.45;;;3.15;;
25988;SDS011;13778;48.236;9.894;2023-03-23T16:59:02;6.25;;;3.53;;
25988;SDS011;13778;48.236;9.894;2023-03-23T17:04:44;7.80;;;5.18;;
25988;SDS011;13778;48.236;9.894;2023-03-23T17:07:35;8.60;;;4.30;;
25988;SDS011;13778;48.236;9.894;2023-03-23T17:10:26;7.63;;;5.65;;
25988;SDS011;13778;48.236;9.894;2023-03-23T17:13:17;5.95;;;4.88;;
25988;SDS011;13778;48.236;9.894;2023-03-23T17:16:09;4.50;;;3.67;;
25988;SDS011;13778;48.236;9.894;2023-03-23T17:21:49;4.75;;;3.72;;
25988;SDS011;13778;48.236;9.894;2023-03-23T17:24:40;13.00;;;4.07;;
25988;SDS011;13778;48.236;9.894;2023-03-23T17:27:31;6.13;;;3.47;;
25988;SDS011;13778;48.236;9.894;2023-03-23T17:30:21;5.60;;;3.42;;
25988;SDS011;13778;48.236;9.894;2023-03-23T17:33:13;9.32;;;4.78;;
25988;SDS011;13778;48.236;9.894;2023-03-23T17:36:04;9.98;;;4.25;;
25988;SDS011;13778;48.236;9.894;2023-03-23T17:38:54;6.97;;;4.43;;
25988;SDS011;13778;48.236;9.894;2023-03-23T17:41:44;8.10;;;5.10;;
25988;SDS011;13778;48.236;9.894;2023-03-23T17:44:35;5.15;;;3.70;;
25988;SDS011;13778;48.236;9.894;2023-03-23T17:47:25;9.23;;;4.25;;
25988;SDS011;13778;48.236;9.894;2023-03-23T17:50:17;6.10;;;4.50;;
25988;SDS011;13778;48.236;9.894;2023-03-23T17:53:07;7.47;;;4.25;;
25988;SDS011;13778;48.236;9.894;2023-03-23T17:55:57;7.18;;;4.68;;
25988;SDS011;13778;48.236;9.894;2023-03-23T17:58:48;9.13;;;5.25;;
25988;SDS011;13778;48.236;9.894;2023-03-23T18:01:39;11.05;;;6.68;;
25988;SDS011;13778;48.236;9.894;2023-03-23T18:04:29;10.25;;;7.40;;
25988;SDS011;13778;48.236;9.894;2023-03-23T18:07:21;7.55;;;5.47;;